Time;durP1;ratioP1;P1;durP2;ratioP2;P2;SDS_P1;SDS_P2;PMS_P1;PMS_P2;Temp;Humidity;BMP_temperature;BMP_pressure;BME280_temperature;BME280_humidity;BME280_pressure;Samples;Min_cycle;Max_cycle;Signal;HPM_P1;HPM_P2
2022/05/27 04:05:21;;;;;;;4.10;2.43;;;12.90;99.90;;;;;;5576104;23;20243;-83
2022/05/27 04:07:50;;;;;;;2.60;2.20;;;12.90;99.90;;;;;;5028332;28;20204;-83
2022/05/27 04:10:18;;;;;;;3.30;2.33;;;12.90;99.90;;;;;;5032434;28;20297;-82
2022/05/27 04:12:46;;;;;;;3.80;2.30;;;13.00;99.90;;;;;;5029871;28;20570;-82
2022/05/27 04:15:18;;;;;;;3.13;2.57;;;13.00;99.90;;;;;;5033350;28;20209;-84
2022/05/27 04:17:46;;;;;;;4.87;2.87;;;13.10;99.90;;;;;;5032778;28;20220;-83
2022/05/27 04:20:18;;;;;;;4.83;2.40;;;13.10;99.90;;;;;;5032805;28;20228;-83
2022/05/27 04:22:47;;;;;;;4.97;2.20;;;13.10;99.90;;;;;;5032158;28;20225;-81
2022/05/27 04:25:16;;;;;;;3.50;2.30;;;13.20;99.90;;;;;;5031889;28;20239;-84
2022/05/27 04:27:44;;;;;;;4.50;2.10;;;13.20;99.90;;;;;;5033321;28;20208;-82
2022/05/27 04:30:13;;;;;;;2.37;1.80;;;13.30;99.90;;;;;;5031400;28;20263;-83
2022/05/27 04:32:42;;;;;;;3.37;2.00;;;13.30;99.90;;;;;;5030492;28;20212;-83
2022/05/27 04:35:11;;;;;;;2.80;1.90;;;13.40;99.90;;;;;;5031740;28;20741;-84
2022/05/27 04:37:40;;;;;;;2.73;2.03;;;13.50;99.90;;;;;;5029272;28;20296;-82
2022/05/27 04:40:09;;;;;;;3.67;2.03;;;13.50;99.90;;;;;;5032911;28;20262;-84
2022/05/27 04:42:37;;;;;;;3.63;2.17;;;13.60;99.90;;;;;;5026581;28;20213;-83
2022/05/27 04:45:07;;;;;;;2.10;1.80;;;13.60;99.90;;;;;;5033783;28;20208;-82
2022/05/27 04:47:37;;;;;;;2.93;1.77;;;13.60;99.90;;;;;;5028442;28;20607;-81
2022/05/27 04:50:07;;;;;;;3.10;2.20;;;13.70;99.90;;;;;;5030313;28;20220;-82
2022/05/27 04:52:35;;;;;;;4.67;2.00;;;13.70;99.90;;;;;;5037329;28;20302;-82
2022/05/27 04:55:08;;;;;;;4.40;2.07;;;13.80;99.90;;;;;;5036202;28;20236;-81
2022/05/27 04:57:40;;;;;;;3.90;1.80;;;13.80;99.90;;;;;;5036875;28;20288;-81
2022/05/27 05:00:12;;;;;;;3.33;2.10;;;13.80;99.90;;;;;;5033210;28;20227;-83
2022/05/27 05:02:41;;;;;;;3.33;1.93;;;13.80;99.90;;;;;;5047632;28;20197;-83
2022/05/27 05:05:14;;;;;;;5.77;1.93;;;13.80;99.90;;;;;;5039147;28;20241;-81
2022/05/27 05:07:44;;;;;;;4.60;1.90;;;13.90;99.90;;;;;;5022779;28;20742;-81
2022/05/27 05:10:16;;;;;;;2.37;1.80;;;14.00;99.90;;;;;;5019278;28;20603;-81
2022/05/27 05:12:45;;;;;;;5.40;2.20;;;14.00;99.90;;;;;;5016542;28;20276;-82
2022/05/27 05:15:14;;;;;;;3.73;2.00;;;14.10;99.90;;;;;;5034066;28;20299;-82
2022/05/27 05:17:42;;;;;;;3.37;2.20;;;14.10;99.90;;;;;;5036758;28;20217;-83
2022/05/27 05:20:12;;;;;;;3.87;1.90;;;14.20;99.90;;;;;;5036182;28;20209;-81
2022/05/27 05:22:41;;;;;;;2.97;2.10;;;14.30;99.90;;;;;;5030876;28;20287;-80
2022/05/27 05:25:10;;;;;;;2.73;1.93;;;14.40;99.90;;;;;;5016389;28;20292;-83
2022/05/27 05:27:41;;;;;;;3.27;1.90;;;14.40;99.90;;;;;;5017132;28;20241;-82
2022/05/27 05:30:12;;;;;;;3.10;1.97;;;14.60;99.90;;;;;;5018437;28;20225;-83
2022/05/27 05:32:40;;;;;;;2.33;1.80;;;14.60;99.90;;;;;;5026133;28;20216;-83
2022/05/27 05:35:09;;;;;;;3.03;2.10;;;14.70;99.90;;;;;;5029461;28;20233;-82
2022/05/27 05:37:37;;;;;;;2.30;1.80;;;14.80;99.90;;;;;;5022356;28;20216;-82
2022/05/27 05:40:08;;;;;;;2.67;2.10;;;15.00;99.90;;;;;;5026776;28;20209;-81
2022/05/27 05:42:39;;;;;;;4.43;2.03;;;15.20;99.90;;;;;;5035377;28;20275;-80
2022/05/27 05:45:10;;;;;;;2.30;1.80;;;15.40;99.90;;;;;;5036132;28;20674;-80
2022/05/27 05:47:38;;;;;;;2.63;1.87;;;15.90;99.90;;;;;;5035444;28;20697;-82
2022/05/27 05:50:07;;;;;;;3.53;1.80;;;16.20;99.90;;;;;;5025740;28;20575;-78
2022/05/27 05:52:35;;;;;;;2.83;1.70;;;16.50;99.90;;;;;;5014495;28;20210;-82
2022/05/27 05:55:04;;;;;;;2.50;1.80;;;16.70;99.90;;;;;;5017810;28;20216;-81
2022/05/27 05:57:32;;;;;;;3.43;1.70;;;16.70;99.90;;;;;;5021978;28;20210;-81
2022/05/27 06:00:02;;;;;;;3.57;1.87;;;16.80;99.90;;;;;;5020701;28;20283;-81
2022/05/27 06:02:30;;;;;;;3.27;2.10;;;16.90;99.90;;;;;;5015008;28;20237;-82
2022/05/27 06:04:58;;;;;;;2.67;1.70;;;17.30;99.90;;;;;;5016176;28;20241;-80
2022/05/27 06:07:30;;;;;;;5.03;1.73;;;18.40;99.90;;;;;;5018539;28;20236;-82
2022/05/27 06:09:58;;;;;;;2.57;1.80;;;19.60;99.90;;;;;;5022140;28;20245;-79
2022/05/27 06:12:26;;;;;;;2.93;1.40;;;20.80;99.90;;;;;;5014721;28;20268;-82
2022/05/27 06:14:54;;;;;;;5.00;1.63;;;22.30;99.90;;;;;;5017087;28;20297;-80
2022/05/27 06:17:27;;;;;;;3.67;1.50;;;23.20;99.90;;;;;;5023488;28;20213;-80
2022/05/27 06:19:58;;;;;;;2.87;1.60;;;23.80;99.90;;;;;;5023514;28;20292;-79
2022/05/27 06:22:26;;;;;;;1.80;1.50;;;24.10;99.90;;;;;;5033629;28;20213;-80
2022/05/27 06:24:54;;;;;;;2.60;1.63;;;24.60;99.90;;;;;;5018579;28;20233;-81
2022/05/27 06:27:22;;;;;;;1.77;1.40;;;24.80;99.40;;;;;;5013545;28;20261;-81
2022/05/27 06:35:35;;;;;;;4.55;1.25;;;26.20;96.20;;;;;;5012947;28;20252;-83
2022/05/27 06:38:03;;;;;;;1.35;1.20;;;26.90;93.20;;;;;;5020823;28;20201;-84
2022/05/27 06:40:32;;;;;;;2.85;1.40;;;26.70;93.30;;;;;;5016473;28;20210;-81
2022/05/27 06:43:00;;;;;;;7.05;1.40;;;27.40;92.40;;;;;;5014307;28;20301;-81
2022/05/27 06:45:28;;;;;;;3.80;1.25;;;27.70;90.80;;;;;;5012809;28;20227;-80
2022/05/27 06:47:57;;;;;;;3.42;1.33;;;27.70;90.50;;;;;;5020201;28;20207;-82
2022/05/27 06:50:25;;;;;;;3.40;1.30;;;28.60;87.80;;;;;;5023218;28;20321;-81
2022/05/27 06:52:56;;;;;;;2.22;1.20;;;28.50;88.20;;;;;;5025396;28;20229;-83
2022/05/27 06:55:25;;;;;;;3.50;1.35;;;28.90;86.10;;;;;;5028722;28;20240;-79
2022/05/27 06:57:52;;;;;;;2.90;1.10;;;29.40;85.10;;;;;;5011498;28;20256;-80
2022/05/27 07:00:21;;;;;;;3.50;1.48;;;28.90;81.60;;;;;;5011387;28;20727;-83
2022/05/27 07:02:48;;;;;;;3.38;1.10;;;29.00;80.70;;;;;;5012278;28;20222;-83
2022/05/27 07:05:18;;;;;;;4.07;1.13;;;28.90;79.20;;;;;;5022823;28;20225;-82
2022/05/27 07:07:46;;;;;;;3.63;1.30;;;28.00;80.20;;;;;;5025178;28;20202;-82
2022/05/27 07:10:14;;;;;;;4.43;1.05;;;28.30;81.10;;;;;;5012933;28;20209;-80
2022/05/27 07:12:42;;;;;;;1.10;1.02;;;28.70;78.00;;;;;;5013087;28;20217;-83
2022/05/27 07:15:11;;;;;;;1.83;1.00;;;28.80;79.60;;;;;;5012172;28;20683;-81
2022/05/27 07:17:39;;;;;;;3.00;1.27;;;28.80;77.00;;;;;;5013425;28;20686;-82
2022/05/27 07:20:09;;;;;;;2.72;1.30;;;28.50;80.30;;;;;;5012748;28;20241;-84
2022/05/27 07:22:38;;;;;;;4.28;1.23;;;28.50;78.20;;;;;;5013710;28;20209;-81
2022/05/27 07:25:09;;;;;;;2.47;1.20;;;28.60;78.60;;;;;;5013135;28;20297;-82
2022/05/27 07:27:37;;;;;;;2.42;1.17;;;28.70;78.40;;;;;;5013063;28;20285;-83
2022/05/27 07:30:06;;;;;;;2.83;1.27;;;29.30;74.90;;;;;;5012368;28;20288;-81
2022/05/27 07:32:35;;;;;;;3.03;1.02;;;29.10;73.80;;;;;;5012649;28;20589;-81
2022/05/27 07:35:03;;;;;;;2.40;1.17;;;29.10;74.00;;;;;;5012672;28;20640;-83
2022/05/27 07:37:32;;;;;;;4.45;1.20;;;30.00;72.90;;;;;;5022238;28;20213;-82
2022/05/27 07:40:01;;;;;;;2.90;1.20;;;29.70;73.40;;;;;;5016345;28;20627;-82
2022/05/27 07:42:29;;;;;;;2.60;1.10;;;29.40;76.30;;;;;;5012814;28;20205;-82
2022/05/27 07:44:58;;;;;;;2.88;1.08;;;28.90;74.10;;;;;;5012959;28;20209;-84
2022/05/27 07:47:26;;;;;;;1.50;1.05;;;29.10;77.90;;;;;;5013236;28;20205;-82
2022/05/27 07:49:54;;;;;;;1.45;1.00;;;29.50;73.00;;;;;;5013203;28;20651;-83
2022/05/27 07:52:23;;;;;;;4.50;1.33;;;29.80;71.80;;;;;;5013210;28;20295;-82
2022/05/27 07:54:55;;;;;;;2.83;1.08;;;29.50;72.60;;;;;;5013237;28;20205;-82
2022/05/27 07:57:27;;;;;;;2.70;1.13;;;29.30;73.90;;;;;;5031257;28;20220;-83
2022/05/27 08:00:02;;;;;;;2.40;1.17;;;29.20;72.00;;;;;;5031885;28;20630;-81
2022/05/27 08:02:30;;;;;;;2.05;1.20;;;28.70;74.50;;;;;;5032056;28;20193;-82
2022/05/27 08:04:58;;;;;;;4.40;1.13;;;29.50;75.30;;;;;;5032039;28;20276;-81
2022/05/27 08:07:30;;;;;;;1.25;1.10;;;29.90;73.50;;;;;;5032314;28;20209;-81
2022/05/27 08:09:58;;;;;;;1.80;1.13;;;29.40;71.60;;;;;;5032127;28;20266;-81
2022/05/27 08:12:28;;;;;;;3.65;1.35;;;28.40;73.20;;;;;;5031195;28;20260;-83
2022/05/27 08:14:56;;;;;;;3.63;1.10;;;27.40;75.60;;;;;;5032145;28;20272;-81
2022/05/27 08:17:24;;;;;;;2.65;1.40;;;26.40;79.80;;;;;;5032671;28;20295;-81
2022/05/27 08:19:53;;;;;;;1.63;1.20;;;26.40;81.00;;;;;;5031856;28;20231;-79
2022/05/27 08:22:21;;;;;;;2.28;1.30;;;26.00;83.20;;;;;;5032387;28;20209;-81
2022/05/27 08:24:49;;;;;;;1.55;1.20;;;26.20;82.20;;;;;;5032213;28;20259;-81
2022/05/27 08:27:17;;;;;;;3.20;1.33;;;25.80;82.50;;;;;;5035095;28;20259;-83
2022/05/27 08:29:47;;;;;;;3.17;1.30;;;26.10;83.90;;;;;;5035825;28;20213;-81
2022/05/27 08:32:16;;;;;;;6.20;1.40;;;26.20;81.30;;;;;;5036250;28;20315;-82
2022/05/27 08:40:34;;;;;;;2.03;1.20;;;28.80;77.70;;;;;;5013333;28;20267;-82
2022/05/27 08:43:10;;;;;;;1.55;1.10;;;29.10;79.00;;;;;;5015908;28;20676;-81
2022/05/27 08:45:47;;;;;;;4.05;1.30;;;28.60;74.70;;;;;;5016125;28;20197;-83
2022/05/27 08:48:16;;;;;;;2.13;1.20;;;27.50;77.50;;;;;;5016328;28;20213;-84
2022/05/27 08:50:50;;;;;;;2.20;1.20;;;26.50;80.80;;;;;;5015893;28;20248;-83
2022/05/27 08:53:27;;;;;;;1.98;1.30;;;25.70;86.10;;;;;;5016538;28;20287;-82
2022/05/27 09:01:38;;;;;;;1.70;1.27;;;25.10;87.10;;;;;;5016401;28;20226;-82
2022/05/27 09:04:10;;;;;;;5.38;1.50;;;25.90;84.00;;;;;;5016632;28;20217;-84
2022/05/27 09:06:42;;;;;;;3.05;1.63;;;26.80;81.70;;;;;;5016286;28;20281;-81
2022/05/27 09:09:17;;;;;;;2.08;1.27;;;27.20;81.90;;;;;;5016292;28;20202;-83
2022/05/27 09:12:03;;;;;;;2.33;1.20;;;27.80;81.20;;;;;;5015712;28;20217;-82
2022/05/27 09:14:37;;;;;;;2.53;1.38;;;27.90;81.90;;;;;;5016014;28;20224;-82
2022/05/27 09:17:11;;;;;;;5.13;1.30;;;27.60;80.20;;;;;;5016449;28;20210;-84
2022/05/27 09:19:50;;;;;;;1.25;1.13;;;26.70;82.90;;;;;;5017126;28;20217;-82
2022/05/27 09:22:30;;;;;;;3.28;1.10;;;27.00;83.60;;;;;;5018764;28;20718;-84
2022/05/27 09:25:12;;;;;;;2.53;1.20;;;27.50;82.30;;;;;;5018633;28;20308;-83
2022/05/27 09:27:48;;;;;;;2.58;1.35;;;27.80;78.80;;;;;;5018371;28;20201;-83
2022/05/27 09:30:18;;;;;;;4.85;1.50;;;26.60;81.50;;;;;;5016214;28;20284;-82
2022/05/27 09:32:52;;;;;;;3.57;1.40;;;25.40;86.80;;;;;;5016029;28;20230;-79
2022/05/27 09:35:26;;;;;;;3.10;1.17;;;24.70;88.80;;;;;;5015846;28;20244;-83
2022/05/27 09:38:14;;;;;;;5.67;1.40;;;24.80;90.20;;;;;;5018901;28;20218;-82
2022/05/27 09:40:48;;;;;;;1.57;1.27;;;24.70;90.30;;;;;;5027004;28;20256;-83
2022/05/27 09:43:22;;;;;;;3.17;1.50;;;25.50;87.40;;;;;;5016593;28;20186;-83
2022/05/27 09:45:59;;;;;;;2.92;0.93;;;27.00;86.30;;;;;;5018181;28;20213;-82
2022/05/27 09:48:28;;;;;;;2.08;1.20;;;28.20;83.50;;;;;;5023995;28;20209;-81
2022/05/27 09:51:00;;;;;;;2.47;1.27;;;29.30;80.30;;;;;;5020014;28;20634;-81
2022/05/27 09:53:38;;;;;;;2.00;1.00;;;29.20;76.50;;;;;;5017938;28;20244;-83
2022/05/27 09:56:09;;;;;;;4.85;1.30;;;29.20;77.00;;;;;;5017615;28;20244;-81
2022/05/27 09:58:40;;;;;;;3.00;1.40;;;29.40;75.20;;;;;;5016728;28;20189;-81
2022/05/27 10:01:21;;;;;;;1.83;1.10;;;28.80;73.60;;;;;;5016761;28;20284;-83
2022/05/27 10:04:00;;;;;;;2.17;1.10;;;28.30;77.80;;;;;;5016341;28;20201;-83
2022/05/27 10:06:32;;;;;;;3.95;1.30;;;28.20;77.70;;;;;;5016109;28;20237;-79
2022/05/27 10:09:05;;;;;;;2.65;1.17;;;28.10;79.20;;;;;;5016567;28;20190;-83
2022/05/27 10:11:34;;;;;;;4.03;1.00;;;28.60;77.00;;;;;;5015563;28;20709;-84
2022/05/27 10:14:22;;;;;;;5.22;1.10;;;29.20;79.10;;;;;;5015525;28;20667;-82
2022/05/27 10:17:07;;;;;;;2.92;0.93;;;29.60;73.90;;;;;;5016231;28;20686;-81
2022/05/27 10:19:45;;;;;;;2.63;1.40;;;28.40;75.80;;;;;;5015491;28;20722;-84
2022/05/27 10:22:24;;;;;;;5.35;1.20;;;28.40;78.50;;;;;;5017954;28;20197;-82
2022/05/27 10:24:59;;;;;;;2.25;1.10;;;28.70;76.40;;;;;;5015068;28;20200;-84
2022/05/27 10:27:34;;;;;;;1.58;1.00;;;28.80;76.80;;;;;;5014489;28;20208;-82
2022/05/27 10:30:07;;;;;;;2.17;1.20;;;28.10;80.50;;;;;;5014105;28;20209;-83
2022/05/27 10:32:41;;;;;;;1.42;1.13;;;27.50;83.10;;;;;;5013873;28;20271;-83
2022/05/27 10:35:33;;;;;;;1.67;1.25;;;27.10;81.60;;;;;;5015274;28;20225;-81
2022/05/27 10:38:34;;;;;;;2.40;1.20;;;26.10;84.20;;;;;;5013780;28;20205;-83
2022/05/27 10:41:07;;;;;;;3.50;1.27;;;25.80;85.00;;;;;;5014548;28;20206;-83
2022/05/27 10:43:55;;;;;;;3.93;1.20;;;25.40;87.80;;;;;;5017577;28;20213;-82
2022/05/27 10:46:31;;;;;;;3.33;1.10;;;25.10;89.20;;;;;;5014119;28;20197;-83
2022/05/27 10:49:18;;;;;;;1.63;1.00;;;25.20;90.50;;;;;;5014972;28;20218;-81
2022/05/27 10:52:02;;;;;;;2.97;1.10;;;26.30;85.70;;;;;;5013888;28;20678;-83
2022/05/27 10:54:44;;;;;;;1.88;1.00;;;27.50;84.80;;;;;;5014593;28;20229;-83
2022/05/27 11:03:43;;;;;;;1.70;1.30;;;26.20;83.70;;;;;;4953565;29;20207;-81
2022/05/27 11:06:33;;;;;;;2.40;1.23;;;25.80;86.10;;;;;;5009317;28;20253;-83
2022/05/27 11:09:13;;;;;;;2.78;1.30;;;26.60;85.20;;;;;;5014108;28;20222;-83
2022/05/27 11:11:50;;;;;;;3.15;1.45;;;27.40;84.80;;;;;;5017104;28;20212;-82
2022/05/27 11:17:31;;;;;;;2.55;1.10;;;28.50;79.50;;;;;;5014500;28;20233;-84
2022/05/27 11:20:30;;;;;;;3.65;1.48;;;28.90;78.60;;;;;;5013521;28;20280;-81
2022/05/27 11:23:09;;;;;;;1.60;1.00;;;28.60;80.00;;;;;;5014439;28;20260;-82
2022/05/27 11:25:52;;;;;;;3.75;1.30;;;28.50;79.20;;;;;;5014142;28;20256;-84
2022/05/27 11:28:53;;;;;;;2.10;1.00;;;28.00;78.80;;;;;;5014109;28;20221;-81
2022/05/27 11:31:32;;;;;;;4.03;1.65;;;27.30;82.10;;;;;;5013748;28;20213;-82
2022/05/27 11:34:13;;;;;;;1.65;1.10;;;26.50;84.20;;;;;;5013746;28;20563;-82
2022/05/27 11:36:55;;;;;;;2.88;1.27;;;26.20;90.00;;;;;;5013514;28;20293;-81
2022/05/27 11:39:51;;;;;;;1.63;1.00;;;26.30;85.10;;;;;;5013549;28;20573;-83
2022/05/27 11:42:46;;;;;;;3.00;1.17;;;26.20;84.00;;;;;;5012870;28;20190;-80
2022/05/27 11:45:21;;;;;;;1.87;1.10;;;25.80;90.50;;;;;;5013588;28;20205;-83
2022/05/27 11:48:06;;;;;;;2.97;1.30;;;25.60;89.80;;;;;;5013288;28;20202;-81
2022/05/27 11:50:59;;;;;;;3.00;1.30;;;25.70;90.10;;;;;;5011010;28;20304;-83
2022/05/27 11:53:46;;;;;;;2.63;1.30;;;25.00;87.90;;;;;;5013397;28;20229;-81
2022/05/27 11:56:27;;;;;;;3.57;1.37;;;24.70;91.70;;;;;;4998385;28;20237;-81
2022/05/27 11:59:00;;;;;;;4.43;1.50;;;24.20;90.60;;;;;;5013042;28;20263;-81
2022/05/27 12:01:37;;;;;;;3.07;1.50;;;24.00;91.60;;;;;;5014758;28;20276;-81
2022/05/27 12:04:13;;;;;;;1.80;1.40;;;24.00;92.10;;;;;;5013425;28;20236;-83
2022/05/27 12:06:49;;;;;;;2.33;1.40;;;24.20;91.70;;;;;;5013234;28;20244;-82
2022/05/27 12:09:27;;;;;;;3.90;1.57;;;24.40;91.80;;;;;;5012645;28;20193;-83
2022/05/27 12:12:01;;;;;;;3.90;1.30;;;24.40;92.60;;;;;;5013299;28;20204;-81
2022/05/27 12:14:37;;;;;;;4.47;1.37;;;24.20;93.30;;;;;;5013281;28;20259;-81
2022/05/27 12:17:10;;;;;;;2.50;1.30;;;24.00;93.10;;;;;;5013312;28;20213;-81
2022/05/27 12:19:41;;;;;;;4.63;1.50;;;23.90;92.30;;;;;;5013233;28;20208;-80
2022/05/27 12:22:11;;;;;;;3.13;1.30;;;23.90;92.90;;;;;;5012718;28;20695;-81
2022/05/27 12:24:42;;;;;;;3.43;1.47;;;24.30;92.70;;;;;;5015015;28;20241;-81
2022/05/27 12:27:14;;;;;;;2.03;1.33;;;24.70;92.90;;;;;;5014104;28;20396;-81
2022/05/27 12:29:47;;;;;;;4.47;1.53;;;25.00;93.50;;;;;;5013398;28;20193;-80
2022/05/27 12:32:17;;;;;;;4.03;1.40;;;25.00;91.70;;;;;;5013178;28;20190;-81
2022/05/27 12:34:48;;;;;;;2.23;1.50;;;25.10;92.80;;;;;;5013507;28;20218;-80
2022/05/27 12:37:24;;;;;;;3.90;1.47;;;24.80;92.30;;;;;;5013207;28;20270;-80
2022/05/27 12:40:15;;;;;;;4.33;1.43;;;24.40;92.50;;;;;;5014023;28;20560;-81
2022/05/27 12:42:44;;;;;;;3.07;1.23;;;23.90;92.80;;;;;;5013244;28;20255;-80
2022/05/27 12:45:38;;;;;;;3.03;1.67;;;24.10;93.60;;;;;;5014070;28;20243;-82
2022/05/27 12:48:09;;;;;;;4.07;1.60;;;24.30;94.00;;;;;;5012784;28;20213;-82
2022/05/27 12:50:39;;;;;;;4.03;1.40;;;24.40;93.90;;;;;;5013458;28;20209;-81
2022/05/27 12:53:17;;;;;;;5.63;1.40;;;24.60;93.20;;;;;;5013138;28;20320;-80
2022/05/27 13:01:29;;;;;;;2.97;1.50;;;24.40;92.90;;;;;;5012673;28;20781;-80
2022/05/27 13:04:01;;;;;;;2.17;1.37;;;24.60;94.40;;;;;;5012182;28;20297;-79
2022/05/27 13:06:39;;;;;;;2.33;1.40;;;24.40;92.30;;;;;;5012793;28;20217;-79
2022/05/27 13:09:27;;;;;;;2.80;1.40;;;24.50;93.60;;;;;;5012180;28;20305;-79
2022/05/27 13:11:55;;;;;;;4.63;1.50;;;24.40;93.00;;;;;;5002788;28;20216;-82
2022/05/27 13:14:39;;;;;;;1.97;1.30;;;24.30;93.20;;;;;;5016294;28;20261;-79
2022/05/27 13:17:11;;;;;;;3.00;1.60;;;24.10;93.60;;;;;;5019303;28;20237;-80
2022/05/27 13:19:44;;;;;;;2.47;1.30;;;24.40;95.40;;;;;;5023838;28;20252;-80
2022/05/27 13:22:14;;;;;;;3.20;1.37;;;24.40;92.90;;;;;;5017610;28;20289;-80
2022/05/27 13:24:44;;;;;;;5.53;1.67;;;24.60;94.00;;;;;;5036013;28;20225;-80
2022/05/27 13:27:26;;;;;;;2.50;1.33;;;24.90;93.90;;;;;;5036297;28;20197;-79
2022/05/27 13:30:04;;;;;;;2.40;1.30;;;24.90;93.50;;;;;;5036065;28;20216;-81
2022/05/27 13:32:37;;;;;;;2.77;1.40;;;24.80;92.40;;;;;;5035165;28;20195;-80
2022/05/27 13:35:14;;;;;;;4.97;1.60;;;24.70;93.80;;;;;;5026369;28;20706;-79
2022/05/27 13:37:50;;;;;;;3.60;1.40;;;24.60;92.90;;;;;;5015892;28;20295;-79
2022/05/27 13:40:27;;;;;;;2.70;1.10;;;24.50;92.70;;;;;;5015111;28;20225;-80
2022/05/27 13:43:01;;;;;;;10.17;1.50;;;24.60;93.40;;;;;;5015883;28;20585;-79
2022/05/27 13:45:42;;;;;;;2.97;1.50;;;24.50;93.20;;;;;;5015196;28;20232;-82
2022/05/27 13:48:16;;;;;;;3.53;1.50;;;24.30;92.60;;;;;;5015521;28;20197;-79
2022/05/27 13:50:49;;;;;;;1.67;1.10;;;24.00;93.20;;;;;;5014509;28;20275;-81
2022/05/27 13:53:25;;;;;;;2.00;1.20;;;24.20;93.60;;;;;;5015219;28;20244;-80
2022/05/27 13:55:55;;;;;;;4.93;1.40;;;24.40;93.40;;;;;;5015255;28;20713;-78
2022/05/27 13:58:26;;;;;;;3.67;1.43;;;24.30;92.50;;;;;;5015440;28;20220;-79
2022/05/27 14:01:01;;;;;;;3.63;1.30;;;24.30;92.30;;;;;;5015582;28;20295;-79
2022/05/27 14:03:40;;;;;;;1.37;1.20;;;24.10;93.10;;;;;;5015359;28;20201;-80
2022/05/27 14:06:10;;;;;;;2.70;1.10;;;23.70;92.60;;;;;;5014776;28;20221;-80
2022/05/27 14:08:41;;;;;;;1.77;1.30;;;23.70;93.30;;;;;;5014809;28;20244;-80
2022/05/27 14:11:18;;;;;;;3.33;1.30;;;23.50;93.30;;;;;;5014600;28;20225;-80
2022/05/27 14:13:52;;;;;;;2.83;1.40;;;23.30;93.50;;;;;;5014336;28;20196;-81
2022/05/27 14:16:31;;;;;;;3.13;1.30;;;23.00;92.60;;;;;;5014720;28;20257;-80
2022/05/27 14:19:10;;;;;;;2.53;1.20;;;22.90;92.90;;;;;;5014612;28;20204;-80
2022/05/27 14:24:31;;;;;;;2.27;1.20;;;22.80;94.20;;;;;;5014650;28;20742;-81
2022/05/27 14:27:01;;;;;;;2.17;1.27;;;23.10;93.00;;;;;;5014157;28;20201;-79
2022/05/27 14:29:29;;;;;;;1.77;1.10;;;23.60;92.80;;;;;;5015600;28;20212;-79
2022/05/27 14:32:03;;;;;;;3.57;1.20;;;24.00;92.80;;;;;;5014627;28;20634;-81
2022/05/27 14:34:33;;;;;;;3.13;1.30;;;23.80;93.30;;;;;;5013992;28;20229;-80
2022/05/27 14:37:13;;;;;;;4.53;1.50;;;23.70;92.10;;;;;;5014327;28;20386;-79
2022/05/27 14:39:43;;;;;;;1.20;1.10;;;23.60;93.70;;;;;;5014113;28;20208;-80
2022/05/27 14:42:12;;;;;;;2.47;1.27;;;23.50;93.40;;;;;;5013379;28;20297;-79
2022/05/27 14:44:42;;;;;;;2.83;1.30;;;23.70;93.10;;;;;;5013976;28;20209;-79
2022/05/27 14:47:22;;;;;;;7.07;1.60;;;23.60;92.60;;;;;;5014281;28;20204;-80
2022/05/27 14:49:54;;;;;;;5.53;1.30;;;23.50;93.40;;;;;;5013472;28;20644;-79
2022/05/27 14:52:26;;;;;;;4.83;1.60;;;23.50;93.50;;;;;;5013864;28;20640;-79
2022/05/27 14:55:00;;;;;;;4.40;1.43;;;23.10;91.20;;;;;;5014211;28;20210;-80
2022/05/27 14:57:31;;;;;;;1.87;1.10;;;22.80;93.10;;;;;;5014149;28;20563;-79
2022/05/27 15:00:03;;;;;;;3.57;1.50;;;22.20;93.40;;;;;;5013179;28;20193;-79
2022/05/27 15:02:48;;;;;;;2.97;1.30;;;22.20;94.10;;;;;;5013620;28;20804;-80
2022/05/27 15:05:31;;;;;;;3.93;1.60;;;22.30;94.20;;;;;;5013907;28;20220;-80
2022/05/27 15:08:01;;;;;;;3.17;1.30;;;22.30;93.70;;;;;;5013364;28;20198;-79
2022/05/27 15:10:34;;;;;;;2.83;1.57;;;22.40;94.10;;;;;;5013155;28;20245;-79
2022/05/27 15:13:24;;;;;;;2.17;1.50;;;22.60;93.70;;;;;;5013499;28;20220;-78
2022/05/27 15:15:53;;;;;;;2.40;1.30;;;22.60;92.10;;;;;;5013867;28;20271;-80
2022/05/27 15:18:24;;;;;;;5.63;1.47;;;22.50;91.80;;;;;;5013827;28;20209;-80
2022/05/27 15:20:57;;;;;;;5.20;1.60;;;22.40;92.90;;;;;;5013389;28;20288;-80
2022/05/27 15:23:30;;;;;;;3.47;1.50;;;22.20;93.30;;;;;;5013327;28;20300;-80
2022/05/27 15:34:25;;;;;;;2.93;1.60;;;21.80;93.00;;;;;;5013458;28;20233;-80
2022/05/27 15:36:55;;;;;;;5.73;1.50;;;21.60;93.20;;;;;;5012396;28;20256;-80
2022/05/27 15:39:24;;;;;;;2.93;1.47;;;21.40;93.30;;;;;;5012808;28;20197;-80
2022/05/27 15:41:52;;;;;;;2.83;1.40;;;21.30;93.90;;;;;;5013013;28;20244;-80
2022/05/27 15:44:20;;;;;;;2.97;1.50;;;21.10;93.30;;;;;;5012696;28;20209;-81
2022/05/27 15:46:50;;;;;;;10.60;7.50;;;20.80;93.80;;;;;;5012951;28;20256;-81
2022/05/27 15:49:18;;;;;;;3.57;1.40;;;20.70;93.80;;;;;;5016142;28;20213;-79
2022/05/27 15:51:46;;;;;;;1.70;1.30;;;20.50;95.20;;;;;;5015932;28;20338;-79
2022/05/27 15:54:17;;;;;;;2.23;1.40;;;20.30;95.00;;;;;;5014982;28;20264;-80
2022/05/27 15:56:45;;;;;;;2.20;1.43;;;20.10;94.90;;;;;;5015566;28;20241;-81
2022/05/27 15:59:13;;;;;;;3.43;1.53;;;19.80;96.60;;;;;;5015039;28;20249;-78
2022/05/27 16:01:41;;;;;;;3.60;1.47;;;19.60;97.70;;;;;;5015730;28;20236;-79
2022/05/27 16:04:10;;;;;;;4.07;1.70;;;19.60;98.40;;;;;;5014310;28;20237;-78
2022/05/27 16:06:39;;;;;;;3.70;1.77;;;19.40;99.00;;;;;;5016634;28;20221;-80
2022/05/27 16:09:07;;;;;;;1.87;1.63;;;19.30;99.90;;;;;;5015020;28;20240;-79
2022/05/27 16:11:44;;;;;;;3.73;1.40;;;19.30;99.50;;;;;;5013150;28;20198;-77
2022/05/27 16:14:12;;;;;;;2.07;1.50;;;19.20;99.50;;;;;;5013835;28;20189;-78
2022/05/27 16:19:26;;;;;;;4.00;1.70;;;18.90;99.90;;;;;;5012713;28;20204;-78
2022/05/27 16:21:56;;;;;;;2.83;1.40;;;18.80;99.90;;;;;;5012994;28;20209;-79
2022/05/27 16:24:24;;;;;;;3.80;1.60;;;18.80;99.90;;;;;;5012694;28;20209;-78
2022/05/27 16:26:53;;;;;;;5.03;1.77;;;18.70;99.90;;;;;;5013168;28;20209;-81
2022/05/27 16:29:22;;;;;;;2.43;1.40;;;18.60;99.90;;;;;;5013155;28;20213;-80
2022/05/27 16:31:51;;;;;;;2.43;1.50;;;18.50;99.90;;;;;;5013401;28;20369;-81
2022/05/27 16:34:22;;;;;;;2.30;1.77;;;18.40;99.90;;;;;;5012851;28;20255;-79
2022/05/27 16:36:51;;;;;;;3.77;1.57;;;18.30;99.90;;;;;;5012819;28;20214;-81
2022/05/27 16:39:20;;;;;;;2.90;1.40;;;18.20;99.90;;;;;;5013063;28;20209;-78
2022/05/27 16:41:50;;;;;;;4.57;1.70;;;18.20;99.90;;;;;;5013453;28;20304;-82
2022/05/27 16:44:20;;;;;;;3.37;1.53;;;18.20;99.90;;;;;;5012621;28;20213;-78
2022/05/27 16:46:48;;;;;;;1.87;1.40;;;18.10;99.90;;;;;;5012742;28;20580;-78
2022/05/27 16:49:22;;;;;;;1.93;1.50;;;18.00;99.90;;;;;;5016414;28;20624;-79
2022/05/27 16:51:50;;;;;;;2.70;1.60;;;18.00;99.90;;;;;;5016389;28;20205;-81
2022/05/27 16:54:19;;;;;;;2.07;1.60;;;17.90;99.90;;;;;;5016692;28;20229;-78
2022/05/27 16:56:48;;;;;;;3.37;1.50;;;17.80;99.90;;;;;;5016120;28;20275;-80
2022/05/27 16:59:17;;;;;;;1.87;1.43;;;17.80;99.90;;;;;;5016092;28;20259;-77
2022/05/27 17:01:46;;;;;;;1.70;1.60;;;17.80;99.90;;;;;;5016021;28;20229;-80
2022/05/27 17:04:15;;;;;;;4.73;1.60;;;17.80;99.90;;;;;;5016165;28;20542;-78
2022/05/27 17:06:43;;;;;;;2.57;1.30;;;17.80;99.90;;;;;;5016476;28;20253;-80
2022/05/27 17:09:15;;;;;;;2.77;1.47;;;17.80;99.90;;;;;;5016080;28;20213;-80
2022/05/27 17:11:44;;;;;;;3.87;1.70;;;17.80;99.90;;;;;;5015500;28;20213;-78
2022/05/27 17:14:12;;;;;;;4.10;1.60;;;17.80;99.90;;;;;;5016225;28;20308;-80
2022/05/27 17:16:41;;;;;;;2.90;1.60;;;17.80;99.90;;;;;;5015734;28;20261;-80
2022/05/27 17:19:11;;;;;;;3.07;1.57;;;17.60;99.90;;;;;;5016023;28;20216;-79
2022/05/27 17:21:40;;;;;;;3.60;1.70;;;17.60;99.90;;;;;;5015850;28;20671;-80
2022/05/27 17:24:10;;;;;;;5.70;1.63;;;17.50;99.90;;;;;;5016266;28;20858;-79
2022/05/27 17:26:39;;;;;;;3.17;1.77;;;17.50;99.90;;;;;;5016784;28;20194;-78
2022/05/27 17:29:12;;;;;;;2.63;1.63;;;17.40;99.90;;;;;;5016986;28;20548;-79
2022/05/27 17:31:44;;;;;;;2.33;1.50;;;17.30;99.90;;;;;;5018540;28;20213;-77
2022/05/27 17:34:14;;;;;;;2.50;1.57;;;17.30;99.90;;;;;;5017871;28;20198;-77
2022/05/27 17:36:43;;;;;;;4.57;1.57;;;17.20;99.90;;;;;;5018103;28;20236;-77
2022/05/27 17:39:11;;;;;;;2.57;1.53;;;17.20;99.90;;;;;;5017396;28;20927;-79
2022/05/27 17:41:39;;;;;;;4.80;1.90;;;17.10;99.90;;;;;;5015957;28;20620;-79
2022/05/27 17:44:08;;;;;;;3.03;1.70;;;17.00;99.90;;;;;;5015871;28;20214;-78
2022/05/27 17:52:10;;;;;;;2.97;1.60;;;16.70;99.90;;;;;;5025918;28;20205;-80
2022/05/27 17:54:39;;;;;;;2.53;1.70;;;16.70;99.90;;;;;;5014489;28;20667;-80
2022/05/27 17:57:07;;;;;;;5.53;1.80;;;16.70;99.90;;;;;;5029545;28;20865;-78
2022/05/27 17:59:36;;;;;;;2.60;1.60;;;16.70;99.90;;;;;;5033204;28;20205;-78
2022/05/27 18:02:05;;;;;;;3.00;1.53;;;16.60;99.90;;;;;;5034169;28;20197;-79
2022/05/27 18:04:35;;;;;;;3.53;1.40;;;16.60;99.90;;;;;;5033941;28;20221;-79
2022/05/27 18:07:04;;;;;;;3.67;1.40;;;16.60;99.90;;;;;;5034296;28;20296;-79
2022/05/27 18:09:39;;;;;;;1.97;1.00;;;16.60;99.90;;;;;;5015412;28;20289;-80
2022/05/27 18:12:08;;;;;;;3.00;1.00;;;16.60;99.90;;;;;;5014367;28;20213;-79